Wednesday, December 19, 2018, 10:45 AM EST
Back to Local

KPEO, Penn Yan Airport

Location: Penn Yan, NY, United States Lat: 42.65
Local Time: 10:45 AM EST (15:45 GMT) Lon: -77.05
Time Zone: US/Eastern Elev: 977 ft

Show me the last for .
Show Decoded

2018-12-19 09:53 METAR KPEO 191453Z AUTO 21008KT 10SM CLR M01/M06 A3006 RMK AO2 SLP193 T10111061
                 56004 =
2018-12-19 08:53 METAR KPEO 191353Z AUTO 21008KT 10SM CLR M03/M07 A3006 RMK AO2 SLP194 T10281067
                 =
2018-12-19 07:53 METAR KPEO 191253Z AUTO 21008KT 10SM CLR M04/M08 A3006 RMK AO2 SLP194 T10441078
                 =
2018-12-19 06:53 METAR KPEO 191153Z AUTO 21004KT 10SM CLR M05/M07 A3007 RMK AO2 SLP198 T10501072
                 11044 21067 58004 =
2018-12-19 05:53 METAR KPEO 191053Z AUTO 21006KT 10SM CLR M05/M08 A3008 RMK AO2 SLP201 T10501078
                 =
2018-12-19 04:53 METAR KPEO 190953Z AUTO 23004KT 10SM CLR M05/M08 A3008 RMK AO2 SLP201 T10501078
                 =
2018-12-19 03:53 METAR KPEO 190853Z AUTO 23004KT 10SM CLR M06/M08 A3008 RMK AO2 SLP201 T10561078
                 58006 =
2018-12-19 02:53 METAR KPEO 190753Z AUTO 24004KT 10SM CLR M06/M08 A3009 RMK AO2 SLP206 T10561078
                 =
2018-12-19 01:53 METAR KPEO 190653Z AUTO 22005KT 10SM CLR M06/M08 A3010 RMK AO2 SLP208 T10561078
                 =
2018-12-19 00:53 METAR KPEO 190553Z AUTO 23003KT 10SM CLR M07/M08 A3010 RMK AO2 SLP208 T10671078
                 11067 21094 58017 =
2018-12-18 23:53 METAR KPEO 190453Z AUTO 22004KT 10SM CLR M07/M09 A3012 RMK AO2 SLP216 T10721094
                 410221094 =
2018-12-18 22:53 METAR KPEO 190353Z AUTO 18003KT 10SM CLR M08/M11 A3014 RMK AO2 SLP222 T10831106
                 =
2018-12-18 21:53 METAR KPEO 190253Z AUTO 15004KT 10SM CLR M09/M11 A3015 RMK AO2 SLP227 T10941111
                 58005 =
2018-12-18 20:53 METAR KPEO 190153Z AUTO 00000KT 10SM CLR M09/M11 A3016 RMK AO2 SLP232 T10891106
                 =
2018-12-18 19:53 METAR KPEO 190053Z AUTO 00000KT 10SM CLR M08/M11 A3017 RMK AO2 SLP234 T10781106
                 =
2018-12-18 18:53 METAR KPEO 182353Z AUTO 00000KT 10SM CLR M07/M10 A3016 RMK AO2 SLP231 T10721100
                 11028 21083 50001 =
2018-12-18 17:53 METAR KPEO 182253Z AUTO 00000KT 10SM CLR M07/M10 A3017 RMK AO2 SLP233 T10671100
                 =
2018-12-18 16:53 METAR KPEO 182153Z AUTO 33003KT 10SM CLR M05/M09 A3016 RMK AO2 SLP230 T10501094
                 =
2018-12-18 16:00 METAR KPEO 182100Z AUTO 30009KT 10SM SCT030 M03/M09 A3016 RMK AO2 T10331094 =
2018-12-18 15:53 METAR KPEO 182053Z AUTO 32008KT 10SM BKN029 M03/M09 A3016 RMK AO2 SLP228
                 T10331094 53003 =
2018-12-18 15:46 METAR KPEO 182046Z AUTO 31005KT 10SM BKN029 M03/M09 A3016 RMK AO2 T10331089 =
2018-12-18 14:53 METAR KPEO 181953Z AUTO 32008KT 10SM FEW025 M03/M09 A3015 RMK AO2 SLP222
                 T10331089 =
2018-12-18 14:43 METAR KPEO 181943Z AUTO 32009KT 10SM FEW025 M03/M09 A3014 RMK AO2 T10331094 =
2018-12-18 13:53 METAR KPEO 181853Z AUTO 30006KT 10SM OVC027 M03/M09 A3014 RMK AO2 SLP222
                 T10331094 =
2018-12-18 12:53 METAR KPEO 181753Z AUTO 30007G17KT 260V330 10SM OVC024 M04/M09 A3015 RMK AO2
                 SLP225 60000 T10441094 11044 21050 58004 =
2018-12-18 11:53 METAR KPEO 181653Z AUTO 33009KT 10SM OVC023 M04/M09 A3016 RMK AO2 SLP226
                 T10441094 =
2018-12-18 10:53 METAR KPEO 181553Z AUTO 33007KT 10SM OVC024 M04/M09 A3016 RMK AO2 SNB1455E08
                 SLP229 P0000 T10441089 =

Support USWX by starting your Amazon purchase here.